Maersk Drummond — A8JF3 — position and weather

sailwx.info

Track history (hours):
 
Tides and Currents Weather Stations Pressure Air Temp Water Temp Dewpoint Dewpoint Depression Visibility Wind Speed Wind Dir Waves Ship Positions

Maersk Drummond

Last reported at 2014-Aug-27 10:30 UTC. Time now 2014-Sep-01 14:00 UTC.
Position N 25°50' W 079°41'.

Length 294 m; draft 10.7 m.

Type: Ship (hazmat cat A). MMSI: 636091082.

Date/timePositionNaut miles runAvg speedWind from/ knotsBaromVisibWave heightAir tempDewpointWater temp
2014-Aug-27 10:30N 25°50' W 079°41'1010.8
2014-Aug-27 09:33N 25°57' W 079°50'1212.2
2014-Aug-27 08:33N 26°03' W 080°02'5 5.1
2014-Aug-27 07:33N 26°04' W 080°07'0 0.1
2014-Aug-27 06:26N 26°04' W 080°07'0 0.0
2014-Aug-27 05:29N 26°04' W 080°07'0 0.0
2014-Aug-27 04:32N 26°04' W 080°07'0 0.0
2014-Aug-27 03:32N 26°04' W 080°07'0 0.0
2014-Aug-27 02:32N 26°04' W 080°07'0 0.0
2014-Aug-27 01:32N 26°04' W 080°07'0 0.0
2014-Aug-27 00:32N 26°04' W 080°07'0 0.0
2014-Aug-26 23:32N 26°04' W 080°07'0 0.0
2014-Aug-26 22:32N 26°04' W 080°07'0 0.0
2014-Aug-26 21:23N 26°04' W 080°07'1 1.3
2014-Aug-26 20:33N 26°05' W 080°07'4 3.5
2014-Aug-26 19:33N 26°05' W 080°03'1 0.7
2014-Aug-26 18:34N 26°04' W 080°02'1 0.7
2014-Aug-26 17:34N 26°04' W 080°02'8 8.0
2014-Aug-26 16:34N 26°06' W 079°53'1211.6
2014-Aug-26 15:34N 26°09' W 079°41'1010.0
2014-Aug-26 14:34N 26°16' W 079°32'1110.6
2014-Aug-26 13:34N 26°26' W 079°28'  
2014-Aug-18 06:08N 36°36' W 028°04'2313.8
2014-Aug-18 04:29N 36°38' W 027°36'1413.6
2014-Aug-18 03:28N 36°39' W 027°18'1313.4
2014-Aug-18 02:30N 36°40' W 027°02'1313.4
2014-Aug-18 01:33N 36°41' W 026°47'1313.0
2014-Aug-18 00:33N 36°41' W 026°30'8113.4
2014-Aug-17 18:33N 36°44' W 024°50'1313.4
2014-Aug-17 17:33N 36°45' W 024°33'1413.8
2014-Aug-17 16:33N 36°46' W 024°16'1413.6
2014-Aug-17 15:33N 36°46' W 023°59'1413.5
2014-Aug-17 14:33N 36°47' W 023°42'  
Track history (hours):
 
Tides and Currents Weather Stations Pressure Air Temp Water Temp Dewpoint Dewpoint Depression Visibility Wind Speed Wind Dir Waves Ship Positions

Maersk Drummond

Last reported at 2014-Aug-27 10:30 UTC. Time now 2014-Sep-01 14:00 UTC.
Position N 25°50' W 079°41'.

Length 294 m; draft 10.7 m.

Type: Ship (hazmat cat A). MMSI: 636091082.

Date/timePositionNaut miles runAvg speedWind from/ knotsBaromVisibWave heightAir tempDewpointWater temp
2014-Aug-27 10:30N 25°50' W 079°41'1010.8
2014-Aug-27 09:33N 25°57' W 079°50'1212.2
2014-Aug-27 08:33N 26°03' W 080°02'5 5.1
2014-Aug-27 07:33N 26°04' W 080°07'0 0.1
2014-Aug-27 06:26N 26°04' W 080°07'0 0.0
2014-Aug-27 05:29N 26°04' W 080°07'0 0.0
2014-Aug-27 04:32N 26°04' W 080°07'0 0.0
2014-Aug-27 03:32N 26°04' W 080°07'0 0.0
2014-Aug-27 02:32N 26°04' W 080°07'0 0.0
2014-Aug-27 01:32N 26°04' W 080°07'0 0.0
2014-Aug-27 00:32N 26°04' W 080°07'0 0.0
2014-Aug-26 23:32N 26°04' W 080°07'0 0.0
2014-Aug-26 22:32N 26°04' W 080°07'0 0.0
2014-Aug-26 21:23N 26°04' W 080°07'1 1.3
2014-Aug-26 20:33N 26°05' W 080°07'4 3.5
2014-Aug-26 19:33N 26°05' W 080°03'1 0.7
2014-Aug-26 18:34N 26°04' W 080°02'1 0.7
2014-Aug-26 17:34N 26°04' W 080°02'8 8.0
2014-Aug-26 16:34N 26°06' W 079°53'1211.6
2014-Aug-26 15:34N 26°09' W 079°41'1010.0
2014-Aug-26 14:34N 26°16' W 079°32'1110.6
2014-Aug-26 13:34N 26°26' W 079°28'  
2014-Aug-18 06:08N 36°36' W 028°04'2313.8
2014-Aug-18 04:29N 36°38' W 027°36'1413.6
2014-Aug-18 03:28N 36°39' W 027°18'1313.4
2014-Aug-18 02:30N 36°40' W 027°02'1313.4
2014-Aug-18 01:33N 36°41' W 026°47'1313.0
2014-Aug-18 00:33N 36°41' W 026°30'8113.4
2014-Aug-17 18:33N 36°44' W 024°50'1313.4
2014-Aug-17 17:33N 36°45' W 024°33'1413.8
2014-Aug-17 16:33N 36°46' W 024°16'1413.6
2014-Aug-17 15:33N 36°46' W 023°59'1413.5
2014-Aug-17 14:33N 36°47' W 023°42'  

Dump ship's entire track history